sensor_id;sensor_type;location;lat;lon;timestamp;P1;durP1;ratioP1;P2;durP2;ratioP2
64907;SDS011;64365;-1.756;110.040;2023-02-03T00:00:13;13.43;;;4.80;;
64907;SDS011;64365;-1.756;110.040;2023-02-03T00:02:42;14.25;;;5.35;;
64907;SDS011;64365;-1.756;110.040;2023-02-03T00:05:08;18.35;;;5.65;;
64907;SDS011;64365;-1.756;110.040;2023-02-03T00:07:35;11.68;;;4.82;;
64907;SDS011;64365;-1.756;110.040;2023-02-03T00:10:03;11.43;;;4.82;;
64907;SDS011;64365;-1.756;110.040;2023-02-03T00:12:32;13.25;;;5.20;;
64907;SDS011;64365;-1.756;110.040;2023-02-03T00:14:59;9.20;;;4.28;;
64907;SDS011;64365;-1.756;110.040;2023-02-03T00:17:25;18.73;;;4.40;;
64907;SDS011;64365;-1.756;110.040;2023-02-03T00:19:53;11.90;;;4.25;;
64907;SDS011;64365;-1.756;110.040;2023-02-03T00:22:20;14.38;;;5.03;;
64907;SDS011;64365;-1.756;110.040;2023-02-03T00:24:46;13.88;;;4.78;;
64907;SDS011;64365;-1.756;110.040;2023-02-03T00:27:13;10.07;;;4.22;;
64907;SDS011;64365;-1.756;110.040;2023-02-03T00:29:39;14.13;;;4.43;;
64907;SDS011;64365;-1.756;110.040;2023-02-03T00:32:06;15.68;;;4.78;;
64907;SDS011;64365;-1.756;110.040;2023-02-03T00:34:32;10.57;;;5.13;;
64907;SDS011;64365;-1.756;110.040;2023-02-03T00:37:00;9.40;;;4.15;;
64907;SDS011;64365;-1.756;110.040;2023-02-03T00:39:27;10.98;;;4.28;;
64907;SDS011;64365;-1.756;110.040;2023-02-03T00:41:53;13.32;;;4.57;;
64907;SDS011;64365;-1.756;110.040;2023-02-03T00:44:20;14.20;;;4.57;;
64907;SDS011;64365;-1.756;110.040;2023-02-03T00:46:46;12.00;;;3.90;;
64907;SDS011;64365;-1.756;110.040;2023-02-03T00:49:13;11.80;;;4.40;;
64907;SDS011;64365;-1.756;110.040;2023-02-03T00:51:39;14.80;;;4.45;;
64907;SDS011;64365;-1.756;110.040;2023-02-03T00:54:07;12.27;;;4.55;;
64907;SDS011;64365;-1.756;110.040;2023-02-03T00:56:35;11.75;;;4.00;;
64907;SDS011;64365;-1.756;110.040;2023-02-03T00:59:01;14.18;;;4.25;;
64907;SDS011;64365;-1.756;110.040;2023-02-03T01:01:28;9.60;;;4.43;;
64907;SDS011;64365;-1.756;110.040;2023-02-03T01:03:55;18.20;;;4.65;;
64907;SDS011;64365;-1.756;110.040;2023-02-03T01:06:21;9.45;;;4.57;;
64907;SDS011;64365;-1.756;110.040;2023-02-03T01:08:49;10.05;;;4.18;;
64907;SDS011;64365;-1.756;110.040;2023-02-03T01:11:18;13.73;;;4.20;;
64907;SDS011;64365;-1.756;110.040;2023-02-03T01:13:45;11.02;;;4.60;;
64907;SDS011;64365;-1.756;110.040;2023-02-03T01:16:13;13.82;;;4.93;;
64907;SDS011;64365;-1.756;110.040;2023-02-03T01:18:41;11.20;;;5.05;;
64907;SDS011;64365;-1.756;110.040;2023-02-03T01:21:08;8.60;;;3.80;;
64907;SDS011;64365;-1.756;110.040;2023-02-03T01:23:36;12.80;;;4.25;;
64907;SDS011;64365;-1.756;110.040;2023-02-03T01:26:03;10.48;;;4.07;;
64907;SDS011;64365;-1.756;110.040;2023-02-03T01:28:32;14.40;;;4.78;;
64907;SDS011;64365;-1.756;110.040;2023-02-03T01:31:07;7.47;;;3.67;;
64907;SDS011;64365;-1.756;110.040;2023-02-03T01:33:34;10.82;;;4.75;;
64907;SDS011;64365;-1.756;110.040;2023-02-03T01:36:04;14.30;;;4.40;;
64907;SDS011;64365;-1.756;110.040;2023-02-03T01:38:31;9.85;;;4.10;;
64907;SDS011;64365;-1.756;110.040;2023-02-03T01:40:58;18.30;;;4.68;;
64907;SDS011;64365;-1.756;110.040;2023-02-03T01:43:28;12.70;;;4.38;;
64907;SDS011;64365;-1.756;110.040;2023-02-03T01:45:57;10.30;;;3.97;;
64907;SDS011;64365;-1.756;110.040;2023-02-03T01:48:25;12.20;;;3.78;;
64907;SDS011;64365;-1.756;110.040;2023-02-03T01:50:52;8.90;;;3.78;;
64907;SDS011;64365;-1.756;110.040;2023-02-03T01:53:20;12.65;;;3.63;;
64907;SDS011;64365;-1.756;110.040;2023-02-03T01:55:47;10.27;;;3.90;;
64907;SDS011;64365;-1.756;110.040;2023-02-03T01:58:16;12.05;;;3.90;;
64907;SDS011;64365;-1.756;110.040;2023-02-03T02:00:46;15.07;;;4.60;;
64907;SDS011;64365;-1.756;110.040;2023-02-03T02:03:16;9.90;;;3.58;;
64907;SDS011;64365;-1.756;110.040;2023-02-03T02:05:47;11.05;;;4.50;;
64907;SDS011;64365;-1.756;110.040;2023-02-03T02:08:15;12.98;;;3.88;;
64907;SDS011;64365;-1.756;110.040;2023-02-03T02:10:46;11.00;;;3.83;;
64907;SDS011;64365;-1.756;110.040;2023-02-03T02:13:13;10.18;;;3.22;;
64907;SDS011;64365;-1.756;110.040;2023-02-03T02:15:43;13.00;;;4.05;;
64907;SDS011;64365;-1.756;110.040;2023-02-03T02:24:16;12.23;;;3.38;;
64907;SDS011;64365;-1.756;110.040;2023-02-03T02:27:06;10.30;;;3.35;;
64907;SDS011;64365;-1.756;110.040;2023-02-03T02:29:52;10.85;;;3.15;;
64907;SDS011;64365;-1.756;110.040;2023-02-03T02:32:42;9.55;;;3.90;;
64907;SDS011;64365;-1.756;110.040;2023-02-03T02:35:17;7.60;;;3.28;;
64907;SDS011;64365;-1.756;110.040;2023-02-03T02:37:55;10.13;;;3.25;;
64907;SDS011;64365;-1.756;110.040;2023-02-03T02:40:28;9.27;;;3.03;;
64907;SDS011;64365;-1.756;110.040;2023-02-03T02:43:01;13.23;;;3.90;;
64907;SDS011;64365;-1.756;110.040;2023-02-03T02:45:36;16.40;;;4.25;;
64907;SDS011;64365;-1.756;110.040;2023-02-03T02:48:12;10.45;;;3.60;;
64907;SDS011;64365;-1.756;110.040;2023-02-03T02:50:43;9.52;;;3.38;;
64907;SDS011;64365;-1.756;110.040;2023-02-03T02:53:12;12.15;;;3.13;;
64907;SDS011;64365;-1.756;110.040;2023-02-03T02:55:40;8.68;;;2.90;;
64907;SDS011;64365;-1.756;110.040;2023-02-03T02:58:09;8.27;;;2.90;;
64907;SDS011;64365;-1.756;110.040;2023-02-03T03:00:39;11.32;;;3.45;;
64907;SDS011;64365;-1.756;110.040;2023-02-03T03:03:12;9.25;;;3.45;;
64907;SDS011;64365;-1.756;110.040;2023-02-03T03:05:40;6.03;;;3.15;;
64907;SDS011;64365;-1.756;110.040;2023-02-03T03:08:09;8.25;;;3.42;;
64907;SDS011;64365;-1.756;110.040;2023-02-03T03:10:40;9.50;;;3.58;;
64907;SDS011;64365;-1.756;110.040;2023-02-03T03:13:11;10.18;;;3.50;;
64907;SDS011;64365;-1.756;110.040;2023-02-03T03:15:42;14.13;;;3.97;;
64907;SDS011;64365;-1.756;110.040;2023-02-03T03:18:12;10.70;;;3.55;;
64907;SDS011;64365;-1.756;110.040;2023-02-03T03:20:41;13.85;;;3.22;;
64907;SDS011;64365;-1.756;110.040;2023-02-03T03:23:13;7.60;;;3.22;;
64907;SDS011;64365;-1.756;110.040;2023-02-03T03:25:45;8.88;;;3.17;;
64907;SDS011;64365;-1.756;110.040;2023-02-03T03:28:15;8.90;;;3.55;;
64907;SDS011;64365;-1.756;110.040;2023-02-03T03:30:50;15.90;;;3.75;;
64907;SDS011;64365;-1.756;110.040;2023-02-03T03:33:19;10.95;;;3.85;;
64907;SDS011;64365;-1.756;110.040;2023-02-03T03:35:47;8.70;;;2.95;;
64907;SDS011;64365;-1.756;110.040;2023-02-03T03:38:18;11.45;;;4.05;;
64907;SDS011;64365;-1.756;110.040;2023-02-03T03:40:50;13.13;;;3.60;;
64907;SDS011;64365;-1.756;110.040;2023-02-03T03:43:23;10.05;;;3.67;;
64907;SDS011;64365;-1.756;110.040;2023-02-03T03:45:53;8.50;;;3.55;;
64907;SDS011;64365;-1.756;110.040;2023-02-03T03:48:26;12.32;;;3.75;;
64907;SDS011;64365;-1.756;110.040;2023-02-03T03:50:57;10.32;;;3.63;;
64907;SDS011;64365;-1.756;110.040;2023-02-03T03:53:27;9.43;;;3.40;;
64907;SDS011;64365;-1.756;110.040;2023-02-03T03:55:57;11.15;;;3.60;;
64907;SDS011;64365;-1.756;110.040;2023-02-03T03:58:28;9.48;;;4.15;;
64907;SDS011;64365;-1.756;110.040;2023-02-03T04:00:56;10.23;;;3.00;;
64907;SDS011;64365;-1.756;110.040;2023-02-03T04:03:29;10.45;;;3.67;;
64907;SDS011;64365;-1.756;110.040;2023-02-03T04:05:58;9.48;;;3.60;;
64907;SDS011;64365;-1.756;110.040;2023-02-03T04:08:24;7.82;;;3.50;;
64907;SDS011;64365;-1.756;110.040;2023-02-03T04:10:51;6.65;;;2.80;;
64907;SDS011;64365;-1.756;110.040;2023-02-03T04:13:18;10.05;;;3.25;;
64907;SDS011;64365;-1.756;110.040;2023-02-03T04:15:44;13.70;;;4.28;;
64907;SDS011;64365;-1.756;110.040;2023-02-03T04:18:12;13.90;;;3.40;;
64907;SDS011;64365;-1.756;110.040;2023-02-03T04:20:41;14.32;;;3.55;;
64907;SDS011;64365;-1.756;110.040;2023-02-03T04:23:08;13.27;;;3.83;;
64907;SDS011;64365;-1.756;110.040;2023-02-03T04:25:35;14.85;;;4.80;;
64907;SDS011;64365;-1.756;110.040;2023-02-03T04:28:01;10.68;;;3.50;;
64907;SDS011;64365;-1.756;110.040;2023-02-03T04:30:30;9.73;;;3.88;;
64907;SDS011;64365;-1.756;110.040;2023-02-03T04:32:56;17.70;;;3.35;;
64907;SDS011;64365;-1.756;110.040;2023-02-03T04:35:23;11.70;;;3.70;;
64907;SDS011;64365;-1.756;110.040;2023-02-03T04:37:51;8.82;;;3.10;;
64907;SDS011;64365;-1.756;110.040;2023-02-03T04:40:18;11.30;;;3.25;;
64907;SDS011;64365;-1.756;110.040;2023-02-03T04:42:44;12.68;;;3.47;;
64907;SDS011;64365;-1.756;110.040;2023-02-03T04:45:11;8.90;;;3.55;;
64907;SDS011;64365;-1.756;110.040;2023-02-03T04:47:38;11.85;;;4.20;;
64907;SDS011;64365;-1.756;110.040;2023-02-03T04:50:05;11.38;;;3.70;;
64907;SDS011;64365;-1.756;110.040;2023-02-03T04:52:32;10.15;;;3.42;;
64907;SDS011;64365;-1.756;110.040;2023-02-03T04:55:00;9.60;;;3.17;;
64907;SDS011;64365;-1.756;110.040;2023-02-03T04:57:28;17.75;;;4.07;;
64907;SDS011;64365;-1.756;110.040;2023-02-03T04:59:54;9.07;;;3.88;;
64907;SDS011;64365;-1.756;110.040;2023-02-03T05:02:21;14.98;;;4.88;;
64907;SDS011;64365;-1.756;110.040;2023-02-03T05:04:47;11.27;;;3.63;;
64907;SDS011;64365;-1.756;110.040;2023-02-03T05:07:14;10.63;;;3.78;;
64907;SDS011;64365;-1.756;110.040;2023-02-03T05:09:40;8.70;;;3.53;;
64907;SDS011;64365;-1.756;110.040;2023-02-03T05:12:08;17.90;;;4.28;;
64907;SDS011;64365;-1.756;110.040;2023-02-03T05:14:35;9.00;;;3.28;;
64907;SDS011;64365;-1.756;110.040;2023-02-03T05:17:01;9.43;;;4.18;;
64907;SDS011;64365;-1.756;110.040;2023-02-03T05:19:28;11.85;;;3.67;;
64907;SDS011;64365;-1.756;110.040;2023-02-03T05:21:54;18.85;;;4.18;;
64907;SDS011;64365;-1.756;110.040;2023-02-03T05:24:21;13.07;;;3.60;;
64907;SDS011;64365;-1.756;110.040;2023-02-03T05:26:48;11.57;;;3.60;;
64907;SDS011;64365;-1.756;110.040;2023-02-03T05:29:15;13.23;;;3.67;;
64907;SDS011;64365;-1.756;110.040;2023-02-03T05:31:42;17.70;;;3.90;;
64907;SDS011;64365;-1.756;110.040;2023-02-03T05:34:09;14.13;;;4.38;;
64907;SDS011;64365;-1.756;110.040;2023-02-03T05:36:35;15.38;;;3.50;;
64907;SDS011;64365;-1.756;110.040;2023-02-03T05:39:02;16.75;;;5.65;;
64907;SDS011;64365;-1.756;110.040;2023-02-03T05:41:28;12.60;;;3.75;;
64907;SDS011;64365;-1.756;110.040;2023-02-03T05:44:13;14.63;;;3.63;;
64907;SDS011;64365;-1.756;110.040;2023-02-03T05:46:41;16.17;;;4.30;;
64907;SDS011;64365;-1.756;110.040;2023-02-03T05:49:07;18.27;;;4.82;;
64907;SDS011;64365;-1.756;110.040;2023-02-03T05:51:34;11.88;;;4.65;;
64907;SDS011;64365;-1.756;110.040;2023-02-03T05:54:00;15.02;;;4.93;;
64907;SDS011;64365;-1.756;110.040;2023-02-03T05:56:27;15.23;;;4.30;;
64907;SDS011;64365;-1.756;110.040;2023-02-03T05:58:54;13.32;;;4.15;;
64907;SDS011;64365;-1.756;110.040;2023-02-03T06:01:20;10.30;;;4.75;;
64907;SDS011;64365;-1.756;110.040;2023-02-03T06:03:48;15.80;;;4.55;;
64907;SDS011;64365;-1.756;110.040;2023-02-03T06:06:15;12.90;;;4.05;;
64907;SDS011;64365;-1.756;110.040;2023-02-03T06:08:42;14.88;;;4.05;;
64907;SDS011;64365;-1.756;110.040;2023-02-03T06:11:09;13.20;;;4.03;;
64907;SDS011;64365;-1.756;110.040;2023-02-03T06:13:36;13.27;;;5.03;;
64907;SDS011;64365;-1.756;110.040;2023-02-03T06:16:03;22.65;;;5.00;;
64907;SDS011;64365;-1.756;110.040;2023-02-03T06:18:31;10.65;;;3.72;;
64907;SDS011;64365;-1.756;110.040;2023-02-03T06:20:59;15.07;;;4.00;;
64907;SDS011;64365;-1.756;110.040;2023-02-03T06:23:25;11.57;;;4.18;;
64907;SDS011;64365;-1.756;110.040;2023-02-03T06:25:52;12.18;;;4.00;;
64907;SDS011;64365;-1.756;110.040;2023-02-03T06:28:18;8.90;;;3.58;;
64907;SDS011;64365;-1.756;110.040;2023-02-03T06:30:48;12.48;;;4.18;;
64907;SDS011;64365;-1.756;110.040;2023-02-03T06:33:15;16.73;;;4.03;;
64907;SDS011;64365;-1.756;110.040;2023-02-03T06:35:41;12.90;;;4.07;;
64907;SDS011;64365;-1.756;110.040;2023-02-03T06:38:09;10.75;;;3.45;;
64907;SDS011;64365;-1.756;110.040;2023-02-03T06:40:36;14.73;;;4.32;;
64907;SDS011;64365;-1.756;110.040;2023-02-03T06:43:03;12.43;;;4.38;;
64907;SDS011;64365;-1.756;110.040;2023-02-03T06:45:30;12.45;;;5.00;;
64907;SDS011;64365;-1.756;110.040;2023-02-03T06:47:56;15.90;;;5.40;;
64907;SDS011;64365;-1.756;110.040;2023-02-03T06:50:23;12.07;;;3.90;;
64907;SDS011;64365;-1.756;110.040;2023-02-03T06:52:49;12.35;;;3.75;;
64907;SDS011;64365;-1.756;110.040;2023-02-03T06:55:17;20.98;;;4.78;;
64907;SDS011;64365;-1.756;110.040;2023-02-03T06:57:44;13.18;;;4.20;;
64907;SDS011;64365;-1.756;110.040;2023-02-03T07:00:13;10.13;;;3.65;;
64907;SDS011;64365;-1.756;110.040;2023-02-03T07:02:41;16.10;;;4.70;;
64907;SDS011;64365;-1.756;110.040;2023-02-03T07:05:08;15.90;;;4.88;;
64907;SDS011;64365;-1.756;110.040;2023-02-03T07:07:34;14.48;;;4.70;;
64907;SDS011;64365;-1.756;110.040;2023-02-03T07:10:03;12.57;;;4.15;;
64907;SDS011;64365;-1.756;110.040;2023-02-03T07:12:32;16.55;;;5.18;;
64907;SDS011;64365;-1.756;110.040;2023-02-03T07:15:00;16.15;;;5.05;;
64907;SDS011;64365;-1.756;110.040;2023-02-03T07:17:27;21.08;;;4.75;;
64907;SDS011;64365;-1.756;110.040;2023-02-03T07:19:53;13.30;;;4.38;;
64907;SDS011;64365;-1.756;110.040;2023-02-03T07:22:20;13.23;;;4.13;;
64907;SDS011;64365;-1.756;110.040;2023-02-03T07:24:46;11.77;;;4.25;;
64907;SDS011;64365;-1.756;110.040;2023-02-03T07:27:13;16.10;;;4.60;;
64907;SDS011;64365;-1.756;110.040;2023-02-03T07:29:41;14.25;;;4.30;;
64907;SDS011;64365;-1.756;110.040;2023-02-03T07:32:07;14.63;;;5.00;;
64907;SDS011;64365;-1.756;110.040;2023-02-03T07:34:34;12.27;;;3.85;;
64907;SDS011;64365;-1.756;110.040;2023-02-03T07:37:01;13.25;;;4.20;;
64907;SDS011;64365;-1.756;110.040;2023-02-03T07:39:27;20.48;;;4.95;;
64907;SDS011;64365;-1.756;110.040;2023-02-03T07:41:54;14.68;;;4.65;;
64907;SDS011;64365;-1.756;110.040;2023-02-03T07:44:20;10.23;;;4.13;;
64907;SDS011;64365;-1.756;110.040;2023-02-03T07:46:48;13.90;;;5.28;;
64907;SDS011;64365;-1.756;110.040;2023-02-03T07:49:15;12.70;;;4.20;;
64907;SDS011;64365;-1.756;110.040;2023-02-03T07:51:41;14.88;;;4.43;;
64907;SDS011;64365;-1.756;110.040;2023-02-03T07:54:08;11.50;;;4.30;;
64907;SDS011;64365;-1.756;110.040;2023-02-03T07:56:34;12.98;;;4.28;;
64907;SDS011;64365;-1.756;110.040;2023-02-03T07:59:01;18.27;;;5.40;;
64907;SDS011;64365;-1.756;110.040;2023-02-03T08:01:28;16.95;;;4.22;;
64907;SDS011;64365;-1.756;110.040;2023-02-03T08:03:56;15.27;;;4.30;;
64907;SDS011;64365;-1.756;110.040;2023-02-03T08:06:26;15.60;;;4.88;;
64907;SDS011;64365;-1.756;110.040;2023-02-03T08:08:54;18.75;;;4.63;;
64907;SDS011;64365;-1.756;110.040;2023-02-03T08:11:21;14.35;;;3.92;;
64907;SDS011;64365;-1.756;110.040;2023-02-03T08:13:47;23.75;;;4.60;;
64907;SDS011;64365;-1.756;110.040;2023-02-03T08:16:14;9.98;;;4.63;;
64907;SDS011;64365;-1.756;110.040;2023-02-03T08:18:41;11.55;;;3.90;;
64907;SDS011;64365;-1.756;110.040;2023-02-03T08:21:08;11.75;;;4.57;;
64907;SDS011;64365;-1.756;110.040;2023-02-03T08:23:36;12.45;;;4.63;;
64907;SDS011;64365;-1.756;110.040;2023-02-03T08:26:02;14.18;;;5.45;;
64907;SDS011;64365;-1.756;110.040;2023-02-03T08:28:29;14.40;;;4.18;;
64907;SDS011;64365;-1.756;110.040;2023-02-03T08:30:56;14.25;;;4.90;;
64907;SDS011;64365;-1.756;110.040;2023-02-03T08:33:22;22.88;;;4.65;;
64907;SDS011;64365;-1.756;110.040;2023-02-03T08:35:49;20.92;;;4.28;;
64907;SDS011;64365;-1.756;110.040;2023-02-03T08:38:17;11.85;;;4.40;;
64907;SDS011;64365;-1.756;110.040;2023-02-03T08:40:45;10.77;;;4.10;;
64907;SDS011;64365;-1.756;110.040;2023-02-03T08:43:12;10.52;;;4.20;;
64907;SDS011;64365;-1.756;110.040;2023-02-03T08:45:39;14.85;;;4.68;;
64907;SDS011;64365;-1.756;110.040;2023-02-03T08:48:05;16.08;;;3.90;;
64907;SDS011;64365;-1.756;110.040;2023-02-03T08:50:32;16.38;;;4.60;;
64907;SDS011;64365;-1.756;110.040;2023-02-03T08:52:59;14.70;;;4.35;;
64907;SDS011;64365;-1.756;110.040;2023-02-03T08:55:27;20.67;;;4.50;;
64907;SDS011;64365;-1.756;110.040;2023-02-03T08:57:53;15.05;;;4.40;;
64907;SDS011;64365;-1.756;110.040;2023-02-03T09:00:20;12.57;;;4.75;;
64907;SDS011;64365;-1.756;110.040;2023-02-03T09:02:47;18.02;;;4.28;;
64907;SDS011;64365;-1.756;110.040;2023-02-03T09:05:13;14.23;;;4.30;;
64907;SDS011;64365;-1.756;110.040;2023-02-03T09:07:42;14.98;;;5.10;;
64907;SDS011;64365;-1.756;110.040;2023-02-03T09:10:09;13.00;;;4.70;;
64907;SDS011;64365;-1.756;110.040;2023-02-03T09:12:38;20.77;;;5.13;;
64907;SDS011;64365;-1.756;110.040;2023-02-03T09:15:05;17.13;;;5.28;;
64907;SDS011;64365;-1.756;110.040;2023-02-03T09:17:32;12.63;;;4.10;;
64907;SDS011;64365;-1.756;110.040;2023-02-03T09:19:58;21.95;;;4.63;;
64907;SDS011;64365;-1.756;110.040;2023-02-03T09:22:25;18.50;;;6.13;;
64907;SDS011;64365;-1.756;110.040;2023-02-03T09:24:52;14.68;;;5.03;;
64907;SDS011;64365;-1.756;110.040;2023-02-03T09:27:18;23.33;;;5.47;;
64907;SDS011;64365;-1.756;110.040;2023-02-03T09:29:46;13.63;;;4.85;;
64907;SDS011;64365;-1.756;110.040;2023-02-03T09:32:12;11.57;;;4.72;;
64907;SDS011;64365;-1.756;110.040;2023-02-03T09:34:39;16.88;;;5.38;;
64907;SDS011;64365;-1.756;110.040;2023-02-03T09:37:06;16.50;;;4.63;;
64907;SDS011;64365;-1.756;110.040;2023-02-03T09:39:32;13.43;;;4.03;;
64907;SDS011;64365;-1.756;110.040;2023-02-03T09:44:56;10.20;;;4.10;;
64907;SDS011;64365;-1.756;110.040;2023-02-03T09:47:31;12.68;;;4.80;;
64907;SDS011;64365;-1.756;110.040;2023-02-03T09:50:01;11.32;;;3.65;;
64907;SDS011;64365;-1.756;110.040;2023-02-03T09:52:31;15.25;;;4.75;;
64907;SDS011;64365;-1.756;110.040;2023-02-03T09:55:00;17.50;;;4.88;;
64907;SDS011;64365;-1.756;110.040;2023-02-03T09:57:31;15.50;;;4.88;;
64907;SDS011;64365;-1.756;110.040;2023-02-03T10:00:12;11.15;;;4.35;;
64907;SDS011;64365;-1.756;110.040;2023-02-03T10:02:45;11.32;;;4.55;;
64907;SDS011;64365;-1.756;110.040;2023-02-03T10:05:21;17.58;;;4.53;;
64907;SDS011;64365;-1.756;110.040;2023-02-03T10:07:56;12.65;;;4.75;;
64907;SDS011;64365;-1.756;110.040;2023-02-03T10:10:35;13.50;;;4.15;;
64907;SDS011;64365;-1.756;110.040;2023-02-03T10:13:12;10.40;;;3.65;;
64907;SDS011;64365;-1.756;110.040;2023-02-03T10:15:56;15.40;;;4.47;;
64907;SDS011;64365;-1.756;110.040;2023-02-03T10:18:31;7.82;;;3.47;;
64907;SDS011;64365;-1.756;110.040;2023-02-03T10:21:02;20.35;;;4.28;;
64907;SDS011;64365;-1.756;110.040;2023-02-03T10:23:38;14.15;;;3.70;;
64907;SDS011;64365;-1.756;110.040;2023-02-03T10:26:07;25.60;;;6.00;;
64907;SDS011;64365;-1.756;110.040;2023-02-03T10:28:39;9.88;;;3.70;;
64907;SDS011;64365;-1.756;110.040;2023-02-03T10:31:14;9.13;;;3.80;;
64907;SDS011;64365;-1.756;110.040;2023-02-03T10:36:13;14.30;;;5.30;;
64907;SDS011;64365;-1.756;110.040;2023-02-03T10:38:46;13.57;;;3.50;;
64907;SDS011;64365;-1.756;110.040;2023-02-03T10:41:20;10.88;;;3.85;;
64907;SDS011;64365;-1.756;110.040;2023-02-03T10:43:48;12.65;;;4.40;;
64907;SDS011;64365;-1.756;110.040;2023-02-03T10:46:18;11.82;;;4.38;;
64907;SDS011;64365;-1.756;110.040;2023-02-03T10:48:46;16.38;;;4.88;;
64907;SDS011;64365;-1.756;110.040;2023-02-03T10:51:16;11.07;;;4.30;;
64907;SDS011;64365;-1.756;110.040;2023-02-03T10:53:45;15.77;;;4.35;;
64907;SDS011;64365;-1.756;110.040;2023-02-03T10:56:13;12.77;;;4.75;;
64907;SDS011;64365;-1.756;110.040;2023-02-03T10:58:45;9.75;;;4.13;;
64907;SDS011;64365;-1.756;110.040;2023-02-03T11:01:14;14.00;;;4.45;;
64907;SDS011;64365;-1.756;110.040;2023-02-03T11:03:43;12.60;;;4.70;;
64907;SDS011;64365;-1.756;110.040;2023-02-03T11:06:18;14.07;;;4.50;;
64907;SDS011;64365;-1.756;110.040;2023-02-03T11:08:45;18.08;;;4.50;;
64907;SDS011;64365;-1.756;110.040;2023-02-03T11:11:14;12.38;;;4.50;;
64907;SDS011;64365;-1.756;110.040;2023-02-03T11:13:45;15.02;;;4.25;;
64907;SDS011;64365;-1.756;110.040;2023-02-03T11:16:14;14.52;;;4.03;;
64907;SDS011;64365;-1.756;110.040;2023-02-03T11:18:51;12.07;;;4.28;;
64907;SDS011;64365;-1.756;110.040;2023-02-03T11:21:23;16.83;;;5.00;;
64907;SDS011;64365;-1.756;110.040;2023-02-03T11:23:54;15.13;;;4.22;;
64907;SDS011;64365;-1.756;110.040;2023-02-03T11:26:27;12.50;;;4.43;;
64907;SDS011;64365;-1.756;110.040;2023-02-03T11:28:56;14.23;;;3.78;;
64907;SDS011;64365;-1.756;110.040;2023-02-03T11:31:25;11.07;;;4.03;;
64907;SDS011;64365;-1.756;110.040;2023-02-03T11:33:59;15.07;;;4.75;;
64907;SDS011;64365;-1.756;110.040;2023-02-03T11:36:29;13.32;;;4.13;;
64907;SDS011;64365;-1.756;110.040;2023-02-03T11:39:10;9.60;;;4.15;;
64907;SDS011;64365;-1.756;110.040;2023-02-03T11:41:50;16.85;;;4.82;;
64907;SDS011;64365;-1.756;110.040;2023-02-03T11:44:19;11.23;;;3.78;;
64907;SDS011;64365;-1.756;110.040;2023-02-03T11:46:47;9.73;;;3.92;;
64907;SDS011;64365;-1.756;110.040;2023-02-03T11:49:26;19.08;;;5.72;;
64907;SDS011;64365;-1.756;110.040;2023-02-03T11:52:18;9.55;;;3.63;;
64907;SDS011;64365;-1.756;110.040;2023-02-03T11:55:02;11.57;;;4.05;;
64907;SDS011;64365;-1.756;110.040;2023-02-03T11:57:42;13.75;;;4.43;;
64907;SDS011;64365;-1.756;110.040;2023-02-03T12:00:19;15.50;;;4.30;;
64907;SDS011;64365;-1.756;110.040;2023-02-03T12:06:12;11.70;;;4.30;;
64907;SDS011;64365;-1.756;110.040;2023-02-03T12:08:57;11.23;;;4.22;;
64907;SDS011;64365;-1.756;110.040;2023-02-03T12:11:35;11.70;;;4.35;;
64907;SDS011;64365;-1.756;110.040;2023-02-03T12:14:16;14.48;;;4.40;;
64907;SDS011;64365;-1.756;110.040;2023-02-03T12:17:03;9.23;;;4.22;;
64907;SDS011;64365;-1.756;110.040;2023-02-03T12:19:48;9.15;;;4.75;;
64907;SDS011;64365;-1.756;110.040;2023-02-03T12:22:28;15.32;;;4.63;;
64907;SDS011;64365;-1.756;110.040;2023-02-03T12:25:03;15.82;;;5.68;;
64907;SDS011;64365;-1.756;110.040;2023-02-03T12:27:43;12.20;;;4.50;;
64907;SDS011;64365;-1.756;110.040;2023-02-03T12:30:19;15.45;;;4.80;;
64907;SDS011;64365;-1.756;110.040;2023-02-03T12:32:50;19.02;;;4.30;;
64907;SDS011;64365;-1.756;110.040;2023-02-03T12:35:23;15.13;;;5.22;;
64907;SDS011;64365;-1.756;110.040;2023-02-03T12:37:57;9.85;;;4.13;;
64907;SDS011;64365;-1.756;110.040;2023-02-03T12:40:31;12.60;;;4.20;;
64907;SDS011;64365;-1.756;110.040;2023-02-03T12:43:03;16.58;;;5.00;;
64907;SDS011;64365;-1.756;110.040;2023-02-03T12:45:43;14.45;;;4.63;;
64907;SDS011;64365;-1.756;110.040;2023-02-03T12:48:16;17.70;;;4.82;;
64907;SDS011;64365;-1.756;110.040;2023-02-03T12:50:47;14.43;;;5.20;;
64907;SDS011;64365;-1.756;110.040;2023-02-03T12:53:19;17.42;;;5.30;;
64907;SDS011;64365;-1.756;110.040;2023-02-03T12:55:50;19.45;;;5.13;;
64907;SDS011;64365;-1.756;110.040;2023-02-03T12:58:25;13.27;;;5.55;;
64907;SDS011;64365;-1.756;110.040;2023-02-03T13:00:57;15.32;;;5.70;;
64907;SDS011;64365;-1.756;110.040;2023-02-03T13:03:31;23.65;;;6.47;;
64907;SDS011;64365;-1.756;110.040;2023-02-03T13:06:05;14.40;;;5.20;;
64907;SDS011;64365;-1.756;110.040;2023-02-03T13:08:38;17.35;;;5.18;;
64907;SDS011;64365;-1.756;110.040;2023-02-03T13:11:12;16.60;;;5.07;;
64907;SDS011;64365;-1.756;110.040;2023-02-03T13:13:47;16.13;;;4.68;;
64907;SDS011;64365;-1.756;110.040;2023-02-03T13:16:22;15.75;;;5.03;;
64907;SDS011;64365;-1.756;110.040;2023-02-03T13:21:23;19.27;;;6.00;;
64907;SDS011;64365;-1.756;110.040;2023-02-03T13:23:51;14.20;;;5.45;;
64907;SDS011;64365;-1.756;110.040;2023-02-03T13:26:33;21.33;;;4.93;;
64907;SDS011;64365;-1.756;110.040;2023-02-03T13:29:17;27.10;;;6.07;;
64907;SDS011;64365;-1.756;110.040;2023-02-03T13:32:01;17.48;;;6.07;;
64907;SDS011;64365;-1.756;110.040;2023-02-03T13:34:50;18.70;;;5.85;;
64907;SDS011;64365;-1.756;110.040;2023-02-03T13:40:27;28.00;;;6.75;;
64907;SDS011;64365;-1.756;110.040;2023-02-03T13:43:09;27.83;;;6.43;;
64907;SDS011;64365;-1.756;110.040;2023-02-03T13:45:38;25.33;;;6.05;;
64907;SDS011;64365;-1.756;110.040;2023-02-03T13:48:08;19.20;;;4.93;;
64907;SDS011;64365;-1.756;110.040;2023-02-03T13:50:40;18.92;;;5.03;;
64907;SDS011;64365;-1.756;110.040;2023-02-03T13:53:13;17.63;;;5.13;;
64907;SDS011;64365;-1.756;110.040;2023-02-03T13:55:50;16.90;;;5.82;;
64907;SDS011;64365;-1.756;110.040;2023-02-03T13:58:19;20.58;;;6.22;;
64907;SDS011;64365;-1.756;110.040;2023-02-03T14:03:57;23.38;;;5.72;;
64907;SDS011;64365;-1.756;110.040;2023-02-03T14:09:38;21.00;;;5.93;;
64907;SDS011;64365;-1.756;110.040;2023-02-03T14:12:18;12.30;;;5.88;;
64907;SDS011;64365;-1.756;110.040;2023-02-03T14:17:58;19.83;;;6.07;;
64907;SDS011;64365;-1.756;110.040;2023-02-03T14:23:48;18.92;;;5.07;;
64907;SDS011;64365;-1.756;110.040;2023-02-03T14:26:21;18.73;;;5.63;;
64907;SDS011;64365;-1.756;110.040;2023-02-03T14:28:56;24.73;;;7.20;;
64907;SDS011;64365;-1.756;110.040;2023-02-03T14:31:23;20.42;;;5.57;;
64907;SDS011;64365;-1.756;110.040;2023-02-03T14:33:57;23.13;;;5.75;;
64907;SDS011;64365;-1.756;110.040;2023-02-03T14:36:32;26.15;;;6.80;;
64907;SDS011;64365;-1.756;110.040;2023-02-03T14:42:02;21.75;;;6.45;;
64907;SDS011;64365;-1.756;110.040;2023-02-03T14:44:40;20.30;;;5.93;;
64907;SDS011;64365;-1.756;110.040;2023-02-03T14:47:20;24.77;;;6.82;;
64907;SDS011;64365;-1.756;110.040;2023-02-03T14:50:00;17.33;;;6.68;;
64907;SDS011;64365;-1.756;110.040;2023-02-03T14:52:42;28.83;;;7.85;;
64907;SDS011;64365;-1.756;110.040;2023-02-03T14:55:26;28.10;;;8.45;;
64907;SDS011;64365;-1.756;110.040;2023-02-03T14:58:14;28.20;;;7.80;;
64907;SDS011;64365;-1.756;110.040;2023-02-03T15:00:49;23.40;;;7.03;;
64907;SDS011;64365;-1.756;110.040;2023-02-03T15:03:22;27.80;;;6.53;;